sensor_id;sensor_type;location;lat;lon;timestamp;P1;durP1;ratioP1;P2;durP2;ratioP2
20844;SDS011;10583;49.084;8.646;2022-12-18T00:01:50;39.20;;;38.80;;
20844;SDS011;10583;49.084;8.646;2022-12-18T00:04:18;38.63;;;38.23;;
20844;SDS011;10583;49.084;8.646;2022-12-18T00:06:47;40.20;;;39.80;;
20844;SDS011;10583;49.084;8.646;2022-12-18T00:09:14;38.33;;;37.93;;
20844;SDS011;10583;49.084;8.646;2022-12-18T00:11:41;41.43;;;41.03;;
20844;SDS011;10583;49.084;8.646;2022-12-18T00:14:09;39.80;;;39.40;;
20844;SDS011;10583;49.084;8.646;2022-12-18T00:16:38;40.20;;;39.80;;
20844;SDS011;10583;49.084;8.646;2022-12-18T00:19:05;38.93;;;38.53;;
20844;SDS011;10583;49.084;8.646;2022-12-18T00:21:33;38.57;;;38.17;;
20844;SDS011;10583;49.084;8.646;2022-12-18T00:24:00;37.80;;;37.40;;
20844;SDS011;10583;49.084;8.646;2022-12-18T00:26:27;38.40;;;38.00;;
20844;SDS011;10583;49.084;8.646;2022-12-18T00:28:57;37.70;;;37.30;;
20844;SDS011;10583;49.084;8.646;2022-12-18T00:31:27;37.70;;;37.30;;
20844;SDS011;10583;49.084;8.646;2022-12-18T00:33:54;39.03;;;38.63;;
20844;SDS011;10583;49.084;8.646;2022-12-18T00:36:22;38.43;;;38.03;;
20844;SDS011;10583;49.084;8.646;2022-12-18T00:38:50;37.03;;;36.63;;
20844;SDS011;10583;49.084;8.646;2022-12-18T00:41:18;38.07;;;37.67;;
20844;SDS011;10583;49.084;8.646;2022-12-18T00:43:59;40.20;;;39.80;;
20844;SDS011;10583;49.084;8.646;2022-12-18T00:46:28;37.27;;;36.87;;
20844;SDS011;10583;49.084;8.646;2022-12-18T00:48:54;38.83;;;38.43;;
20844;SDS011;10583;49.084;8.646;2022-12-18T00:51:22;37.83;;;37.43;;
20844;SDS011;10583;49.084;8.646;2022-12-18T00:53:49;37.70;;;37.30;;
20844;SDS011;10583;49.084;8.646;2022-12-18T00:56:16;37.60;;;37.20;;
20844;SDS011;10583;49.084;8.646;2022-12-18T00:58:42;37.67;;;37.37;;
20844;SDS011;10583;49.084;8.646;2022-12-18T01:01:09;36.23;;;35.83;;
20844;SDS011;10583;49.084;8.646;2022-12-18T01:03:37;36.70;;;36.30;;
20844;SDS011;10583;49.084;8.646;2022-12-18T01:06:05;36.73;;;36.43;;
20844;SDS011;10583;49.084;8.646;2022-12-18T01:08:33;37.37;;;36.97;;
20844;SDS011;10583;49.084;8.646;2022-12-18T01:11:00;36.37;;;35.97;;
20844;SDS011;10583;49.084;8.646;2022-12-18T01:13:27;35.67;;;35.37;;
20844;SDS011;10583;49.084;8.646;2022-12-18T01:15:53;34.67;;;34.33;;
20844;SDS011;10583;49.084;8.646;2022-12-18T01:18:20;36.67;;;36.27;;
20844;SDS011;10583;49.084;8.646;2022-12-18T01:20:49;34.17;;;33.87;;
20844;SDS011;10583;49.084;8.646;2022-12-18T01:23:16;36.77;;;36.47;;
20844;SDS011;10583;49.084;8.646;2022-12-18T01:25:42;35.37;;;35.07;;
20844;SDS011;10583;49.084;8.646;2022-12-18T01:28:09;34.93;;;34.63;;
20844;SDS011;10583;49.084;8.646;2022-12-18T01:30:36;34.80;;;34.50;;
20844;SDS011;10583;49.084;8.646;2022-12-18T01:33:03;36.33;;;35.93;;
20844;SDS011;10583;49.084;8.646;2022-12-18T01:35:30;37.33;;;36.93;;
20844;SDS011;10583;49.084;8.646;2022-12-18T01:37:58;35.90;;;35.60;;
20844;SDS011;10583;49.084;8.646;2022-12-18T01:40:25;35.83;;;35.53;;
20844;SDS011;10583;49.084;8.646;2022-12-18T01:42:52;38.67;;;38.27;;
20844;SDS011;10583;49.084;8.646;2022-12-18T01:45:23;38.27;;;37.87;;
20844;SDS011;10583;49.084;8.646;2022-12-18T01:47:52;37.67;;;37.27;;
20844;SDS011;10583;49.084;8.646;2022-12-18T01:50:21;39.17;;;38.77;;
20844;SDS011;10583;49.084;8.646;2022-12-18T01:52:50;37.73;;;37.33;;
20844;SDS011;10583;49.084;8.646;2022-12-18T01:55:20;39.90;;;39.50;;
20844;SDS011;10583;49.084;8.646;2022-12-18T01:57:50;38.63;;;38.23;;
20844;SDS011;10583;49.084;8.646;2022-12-18T02:00:20;37.53;;;37.13;;
20844;SDS011;10583;49.084;8.646;2022-12-18T02:02:48;38.93;;;38.53;;
20844;SDS011;10583;49.084;8.646;2022-12-18T02:05:16;38.43;;;38.03;;
20844;SDS011;10583;49.084;8.646;2022-12-18T02:07:47;37.70;;;37.30;;
20844;SDS011;10583;49.084;8.646;2022-12-18T02:10:26;37.97;;;37.57;;
20844;SDS011;10583;49.084;8.646;2022-12-18T02:12:56;40.77;;;40.37;;
20844;SDS011;10583;49.084;8.646;2022-12-18T02:15:30;36.83;;;36.43;;
20844;SDS011;10583;49.084;8.646;2022-12-18T02:18:03;37.87;;;37.47;;
20844;SDS011;10583;49.084;8.646;2022-12-18T02:20:34;37.93;;;37.53;;
20844;SDS011;10583;49.084;8.646;2022-12-18T02:23:06;39.00;;;38.60;;
20844;SDS011;10583;49.084;8.646;2022-12-18T02:28:34;37.40;;;37.07;;
20844;SDS011;10583;49.084;8.646;2022-12-18T02:31:04;38.57;;;38.17;;
20844;SDS011;10583;49.084;8.646;2022-12-18T02:33:35;29.37;;;29.07;;
20844;SDS011;10583;49.084;8.646;2022-12-18T02:36:03;41.33;;;40.93;;
20844;SDS011;10583;49.084;8.646;2022-12-18T02:38:31;37.70;;;37.30;;
20844;SDS011;10583;49.084;8.646;2022-12-18T02:41:00;39.10;;;38.70;;
20844;SDS011;10583;49.084;8.646;2022-12-18T02:43:30;38.47;;;38.07;;
20844;SDS011;10583;49.084;8.646;2022-12-18T02:45:58;39.80;;;39.40;;
20844;SDS011;10583;49.084;8.646;2022-12-18T02:48:27;25.00;;;24.70;;
20844;SDS011;10583;49.084;8.646;2022-12-18T02:50:58;39.07;;;38.67;;
20844;SDS011;10583;49.084;8.646;2022-12-18T02:53:31;38.17;;;37.77;;
20844;SDS011;10583;49.084;8.646;2022-12-18T02:56:05;34.43;;;34.10;;
20844;SDS011;10583;49.084;8.646;2022-12-18T02:58:40;38.30;;;37.90;;
20844;SDS011;10583;49.084;8.646;2022-12-18T03:01:15;35.50;;;35.10;;
20844;SDS011;10583;49.084;8.646;2022-12-18T03:03:46;38.97;;;38.57;;
20844;SDS011;10583;49.084;8.646;2022-12-18T03:06:19;39.50;;;39.10;;
20844;SDS011;10583;49.084;8.646;2022-12-18T03:08:50;33.90;;;33.50;;
20844;SDS011;10583;49.084;8.646;2022-12-18T03:11:24;39.87;;;39.47;;
20844;SDS011;10583;49.084;8.646;2022-12-18T03:14:08;35.67;;;35.37;;
20844;SDS011;10583;49.084;8.646;2022-12-18T03:16:39;36.47;;;36.07;;
20844;SDS011;10583;49.084;8.646;2022-12-18T03:19:08;37.80;;;37.40;;
20844;SDS011;10583;49.084;8.646;2022-12-18T03:21:38;38.00;;;37.60;;
20844;SDS011;10583;49.084;8.646;2022-12-18T03:24:08;39.70;;;39.30;;
20844;SDS011;10583;49.084;8.646;2022-12-18T03:26:39;39.30;;;38.90;;
20844;SDS011;10583;49.084;8.646;2022-12-18T03:29:10;37.90;;;37.50;;
20844;SDS011;10583;49.084;8.646;2022-12-18T03:31:41;37.30;;;36.90;;
20844;SDS011;10583;49.084;8.646;2022-12-18T03:34:14;36.73;;;36.43;;
20844;SDS011;10583;49.084;8.646;2022-12-18T03:36:45;36.80;;;36.40;;
20844;SDS011;10583;49.084;8.646;2022-12-18T03:39:12;33.40;;;33.10;;
20844;SDS011;10583;49.084;8.646;2022-12-18T03:41:42;20.03;;;19.83;;
20844;SDS011;10583;49.084;8.646;2022-12-18T03:44:11;37.63;;;37.23;;
20844;SDS011;10583;49.084;8.646;2022-12-18T03:46:40;37.27;;;36.87;;
20844;SDS011;10583;49.084;8.646;2022-12-18T03:49:14;36.90;;;36.53;;
20844;SDS011;10583;49.084;8.646;2022-12-18T03:51:50;38.33;;;37.93;;
20844;SDS011;10583;49.084;8.646;2022-12-18T03:54:21;37.33;;;36.93;;
20844;SDS011;10583;49.084;8.646;2022-12-18T03:56:52;38.07;;;37.67;;
20844;SDS011;10583;49.084;8.646;2022-12-18T03:59:25;37.03;;;36.63;;
20844;SDS011;10583;49.084;8.646;2022-12-18T04:01:55;38.93;;;38.53;;
20844;SDS011;10583;49.084;8.646;2022-12-18T04:04:23;38.40;;;38.00;;
20844;SDS011;10583;49.084;8.646;2022-12-18T04:06:51;33.17;;;32.77;;
20844;SDS011;10583;49.084;8.646;2022-12-18T04:09:19;38.73;;;38.33;;
20844;SDS011;10583;49.084;8.646;2022-12-18T04:11:47;37.70;;;37.30;;
20844;SDS011;10583;49.084;8.646;2022-12-18T04:14:15;37.53;;;37.20;;
20844;SDS011;10583;49.084;8.646;2022-12-18T04:16:42;37.30;;;36.90;;
20844;SDS011;10583;49.084;8.646;2022-12-18T04:19:08;37.70;;;37.30;;
20844;SDS011;10583;49.084;8.646;2022-12-18T04:21:35;38.47;;;38.07;;
20844;SDS011;10583;49.084;8.646;2022-12-18T04:24:02;36.77;;;36.47;;
20844;SDS011;10583;49.084;8.646;2022-12-18T04:26:29;37.40;;;37.00;;
20844;SDS011;10583;49.084;8.646;2022-12-18T04:28:56;35.80;;;35.47;;
20844;SDS011;10583;49.084;8.646;2022-12-18T04:31:24;35.07;;;34.77;;
20844;SDS011;10583;49.084;8.646;2022-12-18T04:33:51;34.80;;;34.50;;
20844;SDS011;10583;49.084;8.646;2022-12-18T04:36:18;33.17;;;32.87;;
20844;SDS011;10583;49.084;8.646;2022-12-18T04:38:45;35.93;;;35.63;;
20844;SDS011;10583;49.084;8.646;2022-12-18T04:41:11;34.40;;;34.10;;
20844;SDS011;10583;49.084;8.646;2022-12-18T04:43:38;34.23;;;33.93;;
20844;SDS011;10583;49.084;8.646;2022-12-18T04:46:05;34.50;;;34.20;;
20844;SDS011;10583;49.084;8.646;2022-12-18T04:48:34;34.40;;;34.07;;
20844;SDS011;10583;49.084;8.646;2022-12-18T04:51:01;34.47;;;34.17;;
20844;SDS011;10583;49.084;8.646;2022-12-18T04:53:28;33.33;;;33.03;;
20844;SDS011;10583;49.084;8.646;2022-12-18T04:56:02;32.60;;;32.30;;
20844;SDS011;10583;49.084;8.646;2022-12-18T04:58:32;33.03;;;32.73;;
20844;SDS011;10583;49.084;8.646;2022-12-18T05:00:59;32.93;;;32.63;;
20844;SDS011;10583;49.084;8.646;2022-12-18T05:03:25;31.93;;;31.63;;
20844;SDS011;10583;49.084;8.646;2022-12-18T05:05:53;31.40;;;31.10;;
20844;SDS011;10583;49.084;8.646;2022-12-18T05:08:20;33.53;;;33.23;;
20844;SDS011;10583;49.084;8.646;2022-12-18T05:10:47;31.90;;;31.60;;
20844;SDS011;10583;49.084;8.646;2022-12-18T05:13:14;32.53;;;32.23;;
20844;SDS011;10583;49.084;8.646;2022-12-18T05:15:40;33.50;;;33.20;;
20844;SDS011;10583;49.084;8.646;2022-12-18T05:18:07;31.33;;;31.03;;
20844;SDS011;10583;49.084;8.646;2022-12-18T05:20:34;32.50;;;32.20;;
20844;SDS011;10583;49.084;8.646;2022-12-18T05:23:02;29.53;;;29.23;;
20844;SDS011;10583;49.084;8.646;2022-12-18T05:25:29;29.60;;;29.30;;
20844;SDS011;10583;49.084;8.646;2022-12-18T05:27:55;31.17;;;30.87;;
20844;SDS011;10583;49.084;8.646;2022-12-18T05:30:22;29.40;;;29.10;;
20844;SDS011;10583;49.084;8.646;2022-12-18T05:32:49;30.80;;;30.50;;
20844;SDS011;10583;49.084;8.646;2022-12-18T05:35:16;30.00;;;29.70;;
20844;SDS011;10583;49.084;8.646;2022-12-18T05:37:42;29.73;;;29.50;;
20844;SDS011;10583;49.084;8.646;2022-12-18T05:40:11;29.93;;;29.63;;
20844;SDS011;10583;49.084;8.646;2022-12-18T05:42:38;29.13;;;28.83;;
20844;SDS011;10583;49.084;8.646;2022-12-18T05:45:05;26.20;;;25.93;;
20844;SDS011;10583;49.084;8.646;2022-12-18T05:47:32;25.83;;;25.63;;
20844;SDS011;10583;49.084;8.646;2022-12-18T05:49:59;29.20;;;28.90;;
20844;SDS011;10583;49.084;8.646;2022-12-18T05:52:26;29.43;;;29.13;;
20844;SDS011;10583;49.084;8.646;2022-12-18T05:54:53;29.20;;;28.90;;
20844;SDS011;10583;49.084;8.646;2022-12-18T05:57:21;29.47;;;29.17;;
20844;SDS011;10583;49.084;8.646;2022-12-18T05:59:47;28.33;;;28.13;;
20844;SDS011;10583;49.084;8.646;2022-12-18T06:02:14;28.27;;;27.97;;
20844;SDS011;10583;49.084;8.646;2022-12-18T06:04:41;28.27;;;27.97;;
20844;SDS011;10583;49.084;8.646;2022-12-18T06:07:08;27.73;;;27.53;;
20844;SDS011;10583;49.084;8.646;2022-12-18T06:09:34;29.43;;;29.13;;
20844;SDS011;10583;49.084;8.646;2022-12-18T06:12:01;24.07;;;23.87;;
20844;SDS011;10583;49.084;8.646;2022-12-18T06:14:30;28.17;;;27.93;;
20844;SDS011;10583;49.084;8.646;2022-12-18T06:16:56;26.97;;;26.70;;
20844;SDS011;10583;49.084;8.646;2022-12-18T06:19:23;28.03;;;27.77;;
20844;SDS011;10583;49.084;8.646;2022-12-18T06:21:50;28.97;;;28.67;;
20844;SDS011;10583;49.084;8.646;2022-12-18T06:24:16;29.03;;;28.77;;
20844;SDS011;10583;49.084;8.646;2022-12-18T06:26:43;28.63;;;28.33;;
20844;SDS011;10583;49.084;8.646;2022-12-18T06:29:10;28.23;;;27.93;;
20844;SDS011;10583;49.084;8.646;2022-12-18T06:31:38;25.30;;;25.10;;
20844;SDS011;10583;49.084;8.646;2022-12-18T06:34:05;20.20;;;20.00;;
20844;SDS011;10583;49.084;8.646;2022-12-18T06:36:31;27.00;;;26.80;;
20844;SDS011;10583;49.084;8.646;2022-12-18T06:38:58;24.47;;;24.27;;
20844;SDS011;10583;49.084;8.646;2022-12-18T06:41:25;26.10;;;25.90;;
20844;SDS011;10583;49.084;8.646;2022-12-18T06:43:52;26.77;;;26.57;;
20844;SDS011;10583;49.084;8.646;2022-12-18T06:46:19;27.10;;;26.80;;
20844;SDS011;10583;49.084;8.646;2022-12-18T06:48:48;26.20;;;26.00;;
20844;SDS011;10583;49.084;8.646;2022-12-18T06:51:16;26.77;;;26.47;;
20844;SDS011;10583;49.084;8.646;2022-12-18T06:53:44;26.90;;;26.70;;
20844;SDS011;10583;49.084;8.646;2022-12-18T06:56:11;17.77;;;17.57;;
20844;SDS011;10583;49.084;8.646;2022-12-18T06:58:38;23.13;;;22.93;;
20844;SDS011;10583;49.084;8.646;2022-12-18T07:01:06;25.07;;;24.87;;
20844;SDS011;10583;49.084;8.646;2022-12-18T07:03:36;26.33;;;26.13;;
20844;SDS011;10583;49.084;8.646;2022-12-18T07:06:05;25.70;;;25.47;;
20844;SDS011;10583;49.084;8.646;2022-12-18T07:08:32;25.90;;;25.70;;
20844;SDS011;10583;49.084;8.646;2022-12-18T07:10:59;21.63;;;21.43;;
20844;SDS011;10583;49.084;8.646;2022-12-18T07:13:28;25.13;;;24.90;;
20844;SDS011;10583;49.084;8.646;2022-12-18T07:15:55;24.13;;;23.93;;
20844;SDS011;10583;49.084;8.646;2022-12-18T07:18:28;27.13;;;26.93;;
20844;SDS011;10583;49.084;8.646;2022-12-18T07:20:55;26.70;;;26.50;;
20844;SDS011;10583;49.084;8.646;2022-12-18T07:23:23;25.60;;;25.40;;
20844;SDS011;10583;49.084;8.646;2022-12-18T07:25:50;26.20;;;26.00;;
20844;SDS011;10583;49.084;8.646;2022-12-18T07:28:16;24.70;;;24.50;;
20844;SDS011;10583;49.084;8.646;2022-12-18T07:30:43;24.07;;;23.87;;
20844;SDS011;10583;49.084;8.646;2022-12-18T07:33:10;25.47;;;25.27;;
20844;SDS011;10583;49.084;8.646;2022-12-18T07:35:36;24.53;;;24.33;;
20844;SDS011;10583;49.084;8.646;2022-12-18T07:38:03;24.37;;;24.17;;
20844;SDS011;10583;49.084;8.646;2022-12-18T07:40:31;25.63;;;25.43;;
20844;SDS011;10583;49.084;8.646;2022-12-18T07:42:58;24.80;;;24.60;;
20844;SDS011;10583;49.084;8.646;2022-12-18T07:45:25;24.27;;;24.07;;
20844;SDS011;10583;49.084;8.646;2022-12-18T07:47:51;25.33;;;25.13;;
20844;SDS011;10583;49.084;8.646;2022-12-18T07:50:18;24.80;;;24.60;;
20844;SDS011;10583;49.084;8.646;2022-12-18T07:52:45;26.13;;;25.93;;
20844;SDS011;10583;49.084;8.646;2022-12-18T07:55:12;24.27;;;24.07;;
20844;SDS011;10583;49.084;8.646;2022-12-18T07:57:40;23.70;;;23.50;;
20844;SDS011;10583;49.084;8.646;2022-12-18T08:00:07;59.97;;;59.27;;
20844;SDS011;10583;49.084;8.646;2022-12-18T08:02:35;40.17;;;39.77;;
20844;SDS011;10583;49.084;8.646;2022-12-18T08:05:02;26.87;;;26.67;;
20844;SDS011;10583;49.084;8.646;2022-12-18T08:07:29;22.47;;;22.27;;
20844;SDS011;10583;49.084;8.646;2022-12-18T08:09:55;27.57;;;27.27;;
20844;SDS011;10583;49.084;8.646;2022-12-18T08:12:22;27.80;;;27.60;;
20844;SDS011;10583;49.084;8.646;2022-12-18T08:14:50;26.87;;;26.67;;
20844;SDS011;10583;49.084;8.646;2022-12-18T08:17:17;26.93;;;26.73;;
20844;SDS011;10583;49.084;8.646;2022-12-18T08:19:45;28.20;;;27.93;;
20844;SDS011;10583;49.084;8.646;2022-12-18T08:22:12;29.27;;;28.97;;
20844;SDS011;10583;49.084;8.646;2022-12-18T08:24:38;28.67;;;28.40;;
20844;SDS011;10583;49.084;8.646;2022-12-18T08:27:05;26.93;;;26.70;;
20844;SDS011;10583;49.084;8.646;2022-12-18T08:29:32;27.10;;;26.87;;
20844;SDS011;10583;49.084;8.646;2022-12-18T08:32:00;26.87;;;26.57;;
20844;SDS011;10583;49.084;8.646;2022-12-18T08:34:27;26.73;;;26.47;;
20844;SDS011;10583;49.084;8.646;2022-12-18T08:36:53;27.87;;;27.67;;
20844;SDS011;10583;49.084;8.646;2022-12-18T08:39:20;27.33;;;27.13;;
20844;SDS011;10583;49.084;8.646;2022-12-18T08:41:47;26.13;;;25.93;;
20844;SDS011;10583;49.084;8.646;2022-12-18T08:44:33;25.77;;;25.57;;
20844;SDS011;10583;49.084;8.646;2022-12-18T08:47:04;28.00;;;27.70;;
20844;SDS011;10583;49.084;8.646;2022-12-18T08:49:31;28.13;;;27.93;;
20844;SDS011;10583;49.084;8.646;2022-12-18T08:51:58;25.90;;;25.70;;
20844;SDS011;10583;49.084;8.646;2022-12-18T08:54:25;28.07;;;27.87;;
20844;SDS011;10583;49.084;8.646;2022-12-18T08:56:52;27.77;;;27.47;;
20844;SDS011;10583;49.084;8.646;2022-12-18T08:59:19;28.03;;;27.83;;
20844;SDS011;10583;49.084;8.646;2022-12-18T09:01:46;30.23;;;29.93;;
20844;SDS011;10583;49.084;8.646;2022-12-18T09:04:14;27.80;;;27.60;;
20844;SDS011;10583;49.084;8.646;2022-12-18T09:06:41;28.97;;;28.67;;
20844;SDS011;10583;49.084;8.646;2022-12-18T09:09:08;28.00;;;27.80;;
20844;SDS011;10583;49.084;8.646;2022-12-18T09:11:35;27.97;;;27.70;;
20844;SDS011;10583;49.084;8.646;2022-12-18T09:14:02;27.97;;;27.77;;
20844;SDS011;10583;49.084;8.646;2022-12-18T09:16:29;28.10;;;27.90;;
20844;SDS011;10583;49.084;8.646;2022-12-18T09:18:56;29.10;;;28.80;;
20844;SDS011;10583;49.084;8.646;2022-12-18T09:21:26;30.60;;;30.30;;
20844;SDS011;10583;49.084;8.646;2022-12-18T09:23:55;28.63;;;28.43;;
20844;SDS011;10583;49.084;8.646;2022-12-18T09:26:22;28.93;;;28.73;;
20844;SDS011;10583;49.084;8.646;2022-12-18T09:28:50;28.43;;;28.23;;
20844;SDS011;10583;49.084;8.646;2022-12-18T09:31:18;29.00;;;28.80;;
20844;SDS011;10583;49.084;8.646;2022-12-18T09:33:46;27.57;;;27.37;;
20844;SDS011;10583;49.084;8.646;2022-12-18T09:36:13;26.80;;;26.60;;
20844;SDS011;10583;49.084;8.646;2022-12-18T09:38:44;28.87;;;28.60;;
20844;SDS011;10583;49.084;8.646;2022-12-18T09:41:16;28.47;;;28.17;;
20844;SDS011;10583;49.084;8.646;2022-12-18T09:43:55;30.07;;;29.77;;
20844;SDS011;10583;49.084;8.646;2022-12-18T09:46:26;26.33;;;26.13;;
20844;SDS011;10583;49.084;8.646;2022-12-18T09:48:57;28.83;;;28.63;;
20844;SDS011;10583;49.084;8.646;2022-12-18T09:51:26;32.50;;;32.20;;
20844;SDS011;10583;49.084;8.646;2022-12-18T09:54:01;28.90;;;28.70;;
20844;SDS011;10583;49.084;8.646;2022-12-18T09:56:31;29.53;;;29.30;;
20844;SDS011;10583;49.084;8.646;2022-12-18T09:59:02;27.00;;;26.80;;
20844;SDS011;10583;49.084;8.646;2022-12-18T10:01:31;29.33;;;29.13;;
20844;SDS011;10583;49.084;8.646;2022-12-18T10:03:58;35.90;;;35.60;;
20844;SDS011;10583;49.084;8.646;2022-12-18T10:06:26;34.17;;;33.87;;
20844;SDS011;10583;49.084;8.646;2022-12-18T10:09:01;36.80;;;36.50;;
20844;SDS011;10583;49.084;8.646;2022-12-18T10:11:39;35.13;;;34.83;;
20844;SDS011;10583;49.084;8.646;2022-12-18T10:14:14;29.33;;;29.13;;
20844;SDS011;10583;49.084;8.646;2022-12-18T10:16:52;31.43;;;31.13;;
20844;SDS011;10583;49.084;8.646;2022-12-18T10:19:28;30.57;;;30.27;;
20844;SDS011;10583;49.084;8.646;2022-12-18T10:22:03;30.43;;;30.23;;
20844;SDS011;10583;49.084;8.646;2022-12-18T10:24:43;30.97;;;30.77;;
20844;SDS011;10583;49.084;8.646;2022-12-18T10:27:21;30.73;;;30.43;;
20844;SDS011;10583;49.084;8.646;2022-12-18T10:29:50;29.20;;;29.00;;
20844;SDS011;10583;49.084;8.646;2022-12-18T10:32:17;30.40;;;30.10;;
20844;SDS011;10583;49.084;8.646;2022-12-18T10:34:45;36.53;;;36.23;;
20844;SDS011;10583;49.084;8.646;2022-12-18T10:37:14;37.93;;;37.63;;
20844;SDS011;10583;49.084;8.646;2022-12-18T10:39:45;34.00;;;33.70;;
20844;SDS011;10583;49.084;8.646;2022-12-18T10:42:16;31.63;;;31.43;;
20844;SDS011;10583;49.084;8.646;2022-12-18T10:44:44;29.73;;;29.53;;
20844;SDS011;10583;49.084;8.646;2022-12-18T10:47:12;33.10;;;32.80;;
20844;SDS011;10583;49.084;8.646;2022-12-18T10:49:46;30.60;;;30.30;;
20844;SDS011;10583;49.084;8.646;2022-12-18T10:52:16;30.27;;;29.97;;
20844;SDS011;10583;49.084;8.646;2022-12-18T10:54:50;31.20;;;31.00;;
20844;SDS011;10583;49.084;8.646;2022-12-18T10:57:29;27.63;;;27.43;;
20844;SDS011;10583;49.084;8.646;2022-12-18T10:59:58;29.47;;;29.27;;
20844;SDS011;10583;49.084;8.646;2022-12-18T11:02:38;29.53;;;29.33;;
20844;SDS011;10583;49.084;8.646;2022-12-18T11:05:21;28.93;;;28.73;;
20844;SDS011;10583;49.084;8.646;2022-12-18T11:07:50;28.17;;;27.97;;
20844;SDS011;10583;49.084;8.646;2022-12-18T11:10:20;29.30;;;29.10;;
20844;SDS011;10583;49.084;8.646;2022-12-18T11:12:48;28.50;;;28.30;;
20844;SDS011;10583;49.084;8.646;2022-12-18T11:15:16;33.03;;;32.73;;
20844;SDS011;10583;49.084;8.646;2022-12-18T11:17:46;28.67;;;28.47;;
20844;SDS011;10583;49.084;8.646;2022-12-18T11:20:20;26.93;;;26.73;;
20844;SDS011;10583;49.084;8.646;2022-12-18T11:22:54;26.80;;;26.60;;
20844;SDS011;10583;49.084;8.646;2022-12-18T11:25:24;26.40;;;26.20;;
20844;SDS011;10583;49.084;8.646;2022-12-18T11:27:52;25.87;;;25.67;;
20844;SDS011;10583;49.084;8.646;2022-12-18T11:30:21;24.77;;;24.57;;
20844;SDS011;10583;49.084;8.646;2022-12-18T11:32:50;26.77;;;26.57;;
20844;SDS011;10583;49.084;8.646;2022-12-18T11:35:20;26.37;;;26.17;;
20844;SDS011;10583;49.084;8.646;2022-12-18T11:37:54;29.40;;;29.20;;
20844;SDS011;10583;49.084;8.646;2022-12-18T11:40:27;27.27;;;27.07;;
20844;SDS011;10583;49.084;8.646;2022-12-18T11:43:00;26.57;;;26.37;;
20844;SDS011;10583;49.084;8.646;2022-12-18T11:45:33;26.07;;;25.87;;
20844;SDS011;10583;49.084;8.646;2022-12-18T11:48:03;27.03;;;26.83;;
20844;SDS011;10583;49.084;8.646;2022-12-18T11:50:40;26.47;;;26.27;;
20844;SDS011;10583;49.084;8.646;2022-12-18T11:53:11;25.80;;;25.60;;
20844;SDS011;10583;49.084;8.646;2022-12-18T11:55:41;24.53;;;24.33;;
20844;SDS011;10583;49.084;8.646;2022-12-18T11:58:18;25.50;;;25.30;;
20844;SDS011;10583;49.084;8.646;2022-12-18T12:00:58;26.97;;;26.77;;
20844;SDS011;10583;49.084;8.646;2022-12-18T12:03:45;26.70;;;26.50;;
20844;SDS011;10583;49.084;8.646;2022-12-18T12:06:36;25.37;;;25.17;;
20844;SDS011;10583;49.084;8.646;2022-12-18T12:09:15;26.77;;;26.57;;
20844;SDS011;10583;49.084;8.646;2022-12-18T12:11:51;25.40;;;25.20;;
20844;SDS011;10583;49.084;8.646;2022-12-18T12:14:32;26.03;;;25.83;;
20844;SDS011;10583;49.084;8.646;2022-12-18T12:17:12;27.10;;;26.90;;
20844;SDS011;10583;49.084;8.646;2022-12-18T12:19:48;26.53;;;26.33;;
20844;SDS011;10583;49.084;8.646;2022-12-18T12:22:23;26.37;;;26.17;;
20844;SDS011;10583;49.084;8.646;2022-12-18T12:24:58;26.00;;;25.80;;
20844;SDS011;10583;49.084;8.646;2022-12-18T12:27:43;27.67;;;27.47;;
20844;SDS011;10583;49.084;8.646;2022-12-18T12:30:18;28.10;;;27.90;;
20844;SDS011;10583;49.084;8.646;2022-12-18T12:35:44;26.97;;;26.77;;
20844;SDS011;10583;49.084;8.646;2022-12-18T12:38:17;25.40;;;25.20;;
20844;SDS011;10583;49.084;8.646;2022-12-18T12:40:49;26.90;;;26.70;;
20844;SDS011;10583;49.084;8.646;2022-12-18T12:43:22;26.23;;;26.03;;
20844;SDS011;10583;49.084;8.646;2022-12-18T12:45:55;25.17;;;24.97;;
20844;SDS011;10583;49.084;8.646;2022-12-18T12:48:31;26.43;;;26.23;;
20844;SDS011;10583;49.084;8.646;2022-12-18T12:51:02;26.47;;;26.27;;
20844;SDS011;10583;49.084;8.646;2022-12-18T12:53:35;25.67;;;25.47;;
20844;SDS011;10583;49.084;8.646;2022-12-18T12:56:04;26.10;;;25.90;;
20844;SDS011;10583;49.084;8.646;2022-12-18T12:58:36;25.23;;;25.03;;
20844;SDS011;10583;49.084;8.646;2022-12-18T13:01:12;25.60;;;25.40;;
20844;SDS011;10583;49.084;8.646;2022-12-18T13:03:51;25.90;;;25.70;;
20844;SDS011;10583;49.084;8.646;2022-12-18T13:06:28;24.77;;;24.57;;
20844;SDS011;10583;49.084;8.646;2022-12-18T13:09:03;25.27;;;25.07;;
20844;SDS011;10583;49.084;8.646;2022-12-18T13:11:39;27.10;;;26.90;;
20844;SDS011;10583;49.084;8.646;2022-12-18T13:14:30;26.80;;;26.60;;
20844;SDS011;10583;49.084;8.646;2022-12-18T13:17:22;27.67;;;27.47;;
20844;SDS011;10583;49.084;8.646;2022-12-18T13:20:08;26.63;;;26.43;;
20844;SDS011;10583;49.084;8.646;2022-12-18T13:22:37;27.57;;;27.37;;
20844;SDS011;10583;49.084;8.646;2022-12-18T13:28:00;27.77;;;27.57;;
20844;SDS011;10583;49.084;8.646;2022-12-18T13:30:45;27.07;;;26.87;;
20844;SDS011;10583;49.084;8.646;2022-12-18T13:36:15;27.47;;;27.27;;
20844;SDS011;10583;49.084;8.646;2022-12-18T13:41:47;27.97;;;27.70;;
20844;SDS011;10583;49.084;8.646;2022-12-18T13:44:21;27.77;;;27.57;;
20844;SDS011;10583;49.084;8.646;2022-12-18T13:46:53;27.73;;;27.53;;
20844;SDS011;10583;49.084;8.646;2022-12-18T13:49:21;27.10;;;26.90;;
20844;SDS011;10583;49.084;8.646;2022-12-18T13:51:50;27.37;;;27.17;;
20844;SDS011;10583;49.084;8.646;2022-12-18T13:54:19;26.77;;;26.57;;
20844;SDS011;10583;49.084;8.646;2022-12-18T13:56:50;27.73;;;27.53;;
20844;SDS011;10583;49.084;8.646;2022-12-18T13:59:18;27.70;;;27.50;;
20844;SDS011;10583;49.084;8.646;2022-12-18T14:01:47;27.57;;;27.37;;
20844;SDS011;10583;49.084;8.646;2022-12-18T14:04:20;27.60;;;27.40;;
20844;SDS011;10583;49.084;8.646;2022-12-18T14:06:49;28.83;;;28.63;;
20844;SDS011;10583;49.084;8.646;2022-12-18T14:09:19;27.63;;;27.40;;
20844;SDS011;10583;49.084;8.646;2022-12-18T14:11:49;26.63;;;26.43;;
20844;SDS011;10583;49.084;8.646;2022-12-18T14:14:17;27.93;;;27.73;;
20844;SDS011;10583;49.084;8.646;2022-12-18T14:16:45;26.27;;;26.07;;
20844;SDS011;10583;49.084;8.646;2022-12-18T14:19:13;27.47;;;27.20;;
20844;SDS011;10583;49.084;8.646;2022-12-18T14:21:46;27.13;;;26.93;;
20844;SDS011;10583;49.084;8.646;2022-12-18T14:24:14;26.73;;;26.53;;
20844;SDS011;10583;49.084;8.646;2022-12-18T14:26:42;27.97;;;27.77;;
20844;SDS011;10583;49.084;8.646;2022-12-18T14:29:20;27.80;;;27.60;;
20844;SDS011;10583;49.084;8.646;2022-12-18T14:32:05;26.30;;;26.10;;
20844;SDS011;10583;49.084;8.646;2022-12-18T14:34:34;29.77;;;29.47;;
20844;SDS011;10583;49.084;8.646;2022-12-18T14:37:02;27.97;;;27.77;;
20844;SDS011;10583;49.084;8.646;2022-12-18T14:39:29;26.73;;;26.53;;
20844;SDS011;10583;49.084;8.646;2022-12-18T14:41:56;27.60;;;27.40;;
20844;SDS011;10583;49.084;8.646;2022-12-18T14:44:23;27.93;;;27.70;;
20844;SDS011;10583;49.084;8.646;2022-12-18T14:46:49;27.67;;;27.47;;
20844;SDS011;10583;49.084;8.646;2022-12-18T14:49:21;26.30;;;26.10;;
20844;SDS011;10583;49.084;8.646;2022-12-18T14:51:50;27.23;;;26.93;;